Almeria, Spain
Current Conditions -  °F | °C
As of 10:30 PM on Thursday 18 Dec 2014 (Local Time) from LEAM Reporting Station
Clear Clear  
Wind Chill: 55°   Ceiling: Unl
Heat Index: 55°   Visibility: 6mi
Dew Point: 50°   Wind: 3mph
Humidity: 82%   Direction: 320°NW
Pressure: 30.36"   Gusts: NA
Location:  36.84°N, 2.47°W
Report Text: LEAM 182130Z 32003KT 290V350 CAVOK 13/10 Q1028
Loading
Personal Weather Stations






























Interactive Weather Map New forecast layout! Learn more

10-Day Weather Forecast

Advertisements
Track Severe Weather on mobile